Time;durP1;ratioP1;P1;durP2;ratioP2;P2;SDS_P1;SDS_P2;PMS_P1;PMS_P2;Temp;Humidity;BMP_temperature;BMP_pressure;BME280_temperature;BME280_humidity;BME280_pressure;Samples;Min_cycle;Max_cycle;Signal;HPM_P1;HPM_P2
2022/12/03 00:00:47;;;;;;;51.28;17.42;;;;;;;1.80;87.25;102291.22;5035798;28;20287;-67
2022/12/03 00:03:12;;;;;;;52.88;16.95;;;;;;;1.80;87.86;102278.38;5031345;28;20037;-67
2022/12/03 00:05:38;;;;;;;51.30;17.75;;;;;;;1.78;87.46;102285.06;5035722;28;20039;-67
2022/12/03 00:08:03;;;;;;;50.80;16.52;;;;;;;1.79;87.62;102281.72;5033811;28;20110;-68
2022/12/03 00:10:29;;;;;;;53.15;17.35;;;;;;;1.80;87.56;102280.94;5032958;28;20064;-67
2022/12/03 00:12:54;;;;;;;53.45;17.08;;;;;;;1.81;87.39;102283.66;5028172;28;20048;-67
2022/12/03 00:15:19;;;;;;;54.55;17.77;;;;;;;1.82;87.95;102282.84;5038431;28;20097;-67
2022/12/03 00:17:45;;;;;;;54.28;18.48;;;;;;;1.82;87.93;102285.41;5025734;28;20184;-67
2022/12/03 00:20:17;;;;;;;57.60;17.33;;;;;;;1.83;87.76;102283.78;5031101;28;20029;-67
2022/12/03 00:22:43;;;;;;;55.13;17.00;;;;;;;1.85;87.38;102269.38;5037919;28;20091;-67
2022/12/03 00:25:08;;;;;;;56.92;18.38;;;;;;;1.84;87.84;102263.34;5037131;28;20029;-67
2022/12/03 00:27:33;;;;;;;52.75;16.85;;;;;;;1.84;87.55;102265.91;5044006;28;20033;-67
2022/12/03 00:29:59;;;;;;;51.40;18.25;;;;;;;1.86;87.39;102261.78;5018633;28;20180;-67
2022/12/03 00:32:24;;;;;;;54.75;17.73;;;;;;;1.88;87.55;102265.38;5026141;28;20025;-67
2022/12/03 00:34:49;;;;;;;55.83;17.40;;;;;;;1.90;88.08;102262.94;5041336;28;20283;-67
2022/12/03 00:37:14;;;;;;;57.40;18.45;;;;;;;1.90;87.29;102268.09;5032726;28;20112;-67
2022/12/03 00:39:40;;;;;;;54.80;17.92;;;;;;;1.89;87.73;102262.03;5033354;28;20045;-67
2022/12/03 00:42:05;;;;;;;62.60;18.80;;;;;;;1.90;87.38;102266.41;5032056;28;20036;-67
2022/12/03 00:44:30;;;;;;;60.50;18.73;;;;;;;1.90;87.78;102253.56;5033269;28;20104;-67
2022/12/03 00:46:55;;;;;;;59.95;19.05;;;;;;;1.90;86.57;102261.25;5028759;28;20021;-67
2022/12/03 00:49:21;;;;;;;62.65;18.70;;;;;;;1.91;87.25;102259.56;5036702;28;20030;-67
2022/12/03 00:51:46;;;;;;;65.20;19.88;;;;;;;1.90;87.77;102250.09;5026333;28;20030;-67
2022/12/03 00:54:11;;;;;;;65.28;20.92;;;;;;;1.88;87.57;102259.34;5036870;28;20096;-67
2022/12/03 00:56:36;;;;;;;63.55;19.42;;;;;;;1.90;87.86;102252.66;5042853;28;20045;-67
2022/12/03 00:59:02;;;;;;;66.57;20.15;;;;;;;1.89;87.26;102258.56;5027453;28;20038;-67
2022/12/03 01:01:27;;;;;;;63.08;20.13;;;;;;;1.89;87.37;102262.03;5029433;28;20238;-67
2022/12/03 01:03:52;;;;;;;65.03;20.27;;;;;;;1.90;87.81;102260.38;5033659;28;20029;-67
2022/12/03 01:06:18;;;;;;;65.93;19.08;;;;;;;1.90;87.67;102261.25;5037771;28;20052;-67
2022/12/03 01:08:43;;;;;;;74.25;19.98;;;;;;;1.91;87.56;102257.91;5032185;28;20154;-67
2022/12/03 01:11:36;;;;;;;64.00;19.38;;;;;;;1.91;87.25;102260.50;5029054;28;20029;-67
2022/12/03 01:13:53;;;;;;;74.20;21.75;;;;;;;1.92;87.45;102261.38;5035524;28;20060;-67
2022/12/03 01:16:19;;;;;;;74.55;20.50;;;;;;;1.91;87.78;102263.06;5031522;28;20135;-63
2022/12/03 01:18:45;;;;;;;67.95;19.80;;;;;;;1.91;87.95;102255.34;5032751;28;20184;-63
2022/12/03 01:21:10;;;;;;;69.05;20.45;;;;;;;1.92;87.51;102253.66;5031504;28;20040;-63
2022/12/03 01:23:35;;;;;;;66.65;20.50;;;;;;;1.92;87.61;102258.81;5036217;28;20025;-63
2022/12/03 01:26:01;;;;;;;71.25;21.20;;;;;;;1.90;87.45;102263.81;5028946;28;20168;-63
2022/12/03 01:28:28;;;;;;;71.80;20.65;;;;;;;1.92;88.07;102263.94;5026348;28;20084;-63
2022/12/03 01:33:37;;;;;;;70.32;21.42;;;;;;;1.91;87.80;102255.34;5029915;28;20087;-63
2022/12/03 01:36:03;;;;;;;69.75;21.35;;;;;;;1.91;87.73;102255.34;5030459;28;20171;-63
2022/12/03 01:38:28;;;;;;;70.68;21.13;;;;;;;1.95;88.20;102253.03;5038588;28;20089;-63
2022/12/03 01:40:53;;;;;;;71.82;21.05;;;;;;;1.92;87.21;102251.97;5040251;28;20098;-63
2022/12/03 01:43:19;;;;;;;74.95;21.50;;;;;;;1.92;87.61;102249.41;5032470;28;20030;-63
2022/12/03 01:45:44;;;;;;;83.95;24.00;;;;;;;1.95;87.65;102253.03;5033043;28;20084;-63
2022/12/03 01:48:15;;;;;;;69.65;22.65;;;;;;;1.96;87.91;102254.84;5030366;28;20049;-63
2022/12/03 01:50:41;;;;;;;73.20;22.40;;;;;;;1.95;88.28;102255.59;5024186;28;20040;-63
2022/12/03 01:53:13;;;;;;;72.95;23.90;;;;;;;1.94;88.02;102252.13;5026675;28;20025;-63
2022/12/03 01:55:39;;;;;;;74.68;22.85;;;;;;;1.96;88.37;102252.25;5038926;28;20088;-64
2022/12/03 01:58:04;;;;;;;78.57;21.23;;;;;;;1.95;88.16;102245.31;5033349;28;20041;-63
2022/12/03 02:00:29;;;;;;;74.63;22.10;;;;;;;1.96;87.95;102253.16;5027589;28;20041;-63
2022/12/03 02:02:59;;;;;;;87.35;24.85;;;;;;;1.96;87.35;102241.97;5023515;28;20028;-63
2022/12/03 02:05:27;;;;;;;80.45;22.52;;;;;;;1.95;88.02;102241.06;5029942;28;20033;-63
2022/12/03 02:07:53;;;;;;;81.63;23.38;;;;;;;1.96;87.53;102249.69;5035033;28;20052;-63
2022/12/03 02:10:25;;;;;;;70.75;21.40;;;;;;;1.91;88.68;102242.50;5036352;28;20017;-63
2022/12/03 02:13:01;;;;;;;78.13;21.88;;;;;;;1.94;87.97;102246.09;5037740;28;20088;-63
2022/12/03 02:15:27;;;;;;;82.15;22.45;;;;;;;1.92;88.18;102244.28;5038763;28;20025;-63
2022/12/03 02:17:52;;;;;;;78.05;21.67;;;;;;;1.94;87.75;102241.88;5032427;28;20073;-63
2022/12/03 02:20:18;;;;;;;75.57;22.90;;;;;;;1.95;88.37;102245.31;5022932;28;20057;-63
2022/12/03 02:23:09;;;;;;;75.50;22.92;;;;;;;1.95;88.25;102241.06;5030594;28;20032;-63
2022/12/03 02:25:35;;;;;;;72.28;21.92;;;;;;;1.94;87.42;102243.50;5009721;28;20113;-63
2022/12/03 02:28:03;;;;;;;66.82;21.83;;;;;;;1.89;88.17;102236.31;5007644;28;20017;-67
2022/12/03 02:30:30;;;;;;;73.50;21.88;;;;;;;1.90;87.65;102234.66;5039113;28;20044;-67
2022/12/03 02:32:56;;;;;;;70.20;21.52;;;;;;;1.90;87.93;102234.66;5033598;28;20021;-67
2022/12/03 02:35:24;;;;;;;78.60;22.38;;;;;;;1.92;87.96;102230.53;5031437;28;20025;-67
2022/12/03 02:37:53;;;;;;;77.18;22.10;;;;;;;1.92;88.30;102239.13;5029465;28;20106;-67
2022/12/03 02:40:21;;;;;;;66.88;22.85;;;;;;;1.95;88.00;102235.03;5028382;28;20025;-67
2022/12/03 02:42:49;;;;;;;79.38;24.17;;;;;;;1.96;88.03;102230.00;5036762;28;20167;-67
2022/12/03 02:45:19;;;;;;;71.28;20.98;;;;;;;1.95;88.08;102233.34;5035643;28;20065;-67
2022/12/03 02:47:50;;;;;;;68.40;22.13;;;;;;;1.97;88.70;102228.34;5032559;28;20022;-67
2022/12/03 02:50:19;;;;;;;70.82;21.15;;;;;;;1.97;87.68;102230.91;5024855;28;20033;-67
2022/12/03 02:52:46;;;;;;;74.50;22.02;;;;;;;1.96;88.29;102230.00;5032177;28;20041;-67
2022/12/03 02:55:15;;;;;;;69.63;21.45;;;;;;;1.97;87.59;102225.75;5035096;28;20089;-67
2022/12/03 02:57:42;;;;;;;73.80;21.88;;;;;;;1.97;88.56;102234.38;5041353;28;20223;-67
2022/12/03 03:00:10;;;;;;;72.10;21.48;;;;;;;1.96;88.89;102226.56;5036994;28;20056;-67
2022/12/03 03:02:37;;;;;;;69.70;21.13;;;;;;;1.98;88.53;102222.44;5028448;28;20280;-68
2022/12/03 03:05:05;;;;;;;66.65;20.42;;;;;;;1.99;87.90;102225.13;5040790;28;20049;-67
2022/12/03 03:07:31;;;;;;;72.65;21.35;;;;;;;1.97;88.15;102220.63;5027687;28;20026;-67
2022/12/03 03:09:58;;;;;;;75.35;22.45;;;;;;;1.99;88.38;102224.22;5038012;28;20022;-67
2022/12/03 03:12:23;;;;;;;69.20;21.88;;;;;;;1.96;87.90;102216.28;5013960;28;20343;-67
2022/12/03 03:14:48;;;;;;;66.72;21.38;;;;;;;1.94;88.58;102216.16;5035543;28;20029;-67
2022/12/03 03:17:14;;;;;;;71.70;21.60;;;;;;;1.91;88.21;102211.66;5025773;28;20033;-67
2022/12/03 03:19:39;;;;;;;65.93;21.90;;;;;;;1.91;89.11;102209.09;5024625;28;20033;-68
2022/12/03 03:22:04;;;;;;;69.45;21.25;;;;;;;1.94;88.31;102207.53;5012972;28;20050;-67
2022/12/03 03:24:31;;;;;;;63.30;21.33;;;;;;;1.94;88.91;102212.66;5030573;28;20032;-68
2022/12/03 03:26:56;;;;;;;69.57;22.05;;;;;;;1.91;88.40;102206.53;5033345;28;20216;-63
2022/12/03 03:29:22;;;;;;;70.88;22.10;;;;;;;1.90;88.62;102211.53;5029716;28;20048;-63
2022/12/03 03:31:47;;;;;;;71.45;21.35;;;;;;;1.90;88.50;102204.72;5034321;28;20101;-63
2022/12/03 03:34:14;;;;;;;68.95;21.73;;;;;;;1.92;88.88;102200.56;5034993;28;20037;-63
2022/12/03 03:36:39;;;;;;;69.97;21.33;;;;;;;1.94;88.68;102202.38;5027708;28;20036;-63
2022/12/03 03:39:05;;;;;;;69.03;21.60;;;;;;;1.96;88.41;102201.75;5033415;28;20037;-63
2022/12/03 03:41:31;;;;;;;67.68;21.23;;;;;;;1.98;88.60;102204.44;5033215;28;20101;-63
2022/12/03 03:43:57;;;;;;;71.13;21.58;;;;;;;1.97;88.15;102210.34;5038915;28;20034;-63
2022/12/03 03:46:22;;;;;;;70.93;21.65;;;;;;;1.94;88.91;102199.81;5026615;28;20045;-63
2022/12/03 03:48:49;;;;;;;71.85;22.35;;;;;;;1.92;88.82;102198.00;5034251;28;20132;-63
2022/12/03 03:51:17;;;;;;;66.85;21.95;;;;;;;1.91;88.67;102195.31;5030872;28;20030;-63
2022/12/03 03:53:48;;;;;;;64.35;21.45;;;;;;;1.87;88.05;102196.75;5040090;28;20156;-63
2022/12/03 03:56:16;;;;;;;71.07;22.08;;;;;;;1.86;88.66;102192.38;5036785;28;20176;-67
2022/12/03 03:58:41;;;;;;;70.40;22.08;;;;;;;1.87;89.03;102199.31;5034158;28;20330;-67
2022/12/03 04:01:08;;;;;;;69.95;22.42;;;;;;;1.87;89.03;102196.75;5035893;28;20024;-67
2022/12/03 04:03:34;;;;;;;69.85;22.48;;;;;;;1.87;88.56;102198.44;5034424;28;20040;-67
2022/12/03 04:05:59;;;;;;;74.97;23.70;;;;;;;1.89;88.60;102199.44;5040228;28;20275;-67
2022/12/03 04:08:24;;;;;;;65.15;21.73;;;;;;;1.90;89.01;102197.00;5032506;28;20049;-67
2022/12/03 04:13:33;;;;;;;68.40;21.88;;;;;;;1.92;89.19;102190.31;5032780;28;20037;-67
2022/12/03 04:15:59;;;;;;;65.97;22.20;;;;;;;1.94;89.03;102186.97;5041390;28;20030;-67
2022/12/03 04:18:42;;;;;;;68.78;22.55;;;;;;;1.95;89.04;102189.66;5037334;28;21712;-67
2022/12/03 04:23:53;;;;;;;67.90;21.55;;;;;;;1.95;88.52;102181.06;5027662;28;20101;-67
2022/12/03 04:29:02;;;;;;;65.85;20.92;;;;;;;1.90;89.16;102185.84;5034682;28;20044;-67
2022/12/03 04:36:56;;;;;;;60.55;20.45;;;;;;;1.85;89.19;102185.44;5035597;28;20044;-67
2022/12/03 04:39:21;;;;;;;66.15;20.92;;;;;;;1.86;88.87;102189.81;5033757;28;20042;-67
2022/12/03 04:41:47;;;;;;;66.10;20.85;;;;;;;1.89;89.59;102192.63;5028861;28;20017;-67
2022/12/03 04:44:34;;;;;;;69.47;21.42;;;;;;;1.90;89.07;102189.28;5025402;28;20169;-67
2022/12/03 04:46:58;;;;;;;68.35;20.73;;;;;;;1.89;88.66;102187.47;5025837;28;20033;-67
2022/12/03 04:49:24;;;;;;;65.85;21.02;;;;;;;1.89;88.89;102189.16;5030135;28;20026;-67
2022/12/03 04:51:49;;;;;;;65.18;21.75;;;;;;;1.90;89.02;102189.28;5040773;28;20035;-67
2022/12/03 04:54:14;;;;;;;61.38;21.10;;;;;;;1.91;89.29;102180.81;5030221;28;20030;-67
2022/12/03 04:56:40;;;;;;;69.78;23.30;;;;;;;1.89;88.65;102181.47;5034937;28;20042;-67
2022/12/03 04:59:05;;;;;;;68.93;22.88;;;;;;;1.86;88.38;102178.66;5033158;28;20065;-67
2022/12/03 05:01:31;;;;;;;61.90;21.45;;;;;;;1.81;89.02;102177.38;5034014;28;20292;-67
2022/12/03 05:03:56;;;;;;;68.28;22.27;;;;;;;1.80;89.16;102179.06;5025855;28;21263;-67
2022/12/03 05:06:21;;;;;;;60.33;21.45;;;;;;;1.80;89.49;102171.34;5040399;28;20040;-67
2022/12/03 05:08:47;;;;;;;63.25;21.73;;;;;;;1.80;89.30;102171.34;5033606;28;20052;-67
2022/12/03 05:11:12;;;;;;;71.88;23.73;;;;;;;1.82;89.61;102166.31;5036316;28;20103;-67
2022/12/03 05:13:37;;;;;;;67.18;21.90;;;;;;;1.80;89.07;102171.34;5039016;28;20040;-67
2022/12/03 05:16:03;;;;;;;67.93;22.33;;;;;;;1.81;89.73;102174.78;5038463;28;20036;-67
2022/12/03 05:18:28;;;;;;;65.05;22.55;;;;;;;1.79;89.73;102172.09;5032594;28;20029;-67
2022/12/03 05:20:53;;;;;;;68.38;21.85;;;;;;;1.81;89.35;102174.78;5032829;28;20029;-67
2022/12/03 05:23:18;;;;;;;63.10;21.95;;;;;;;1.79;89.03;102166.97;5030929;28;20055;-67
2022/12/03 05:25:44;;;;;;;67.45;21.95;;;;;;;1.80;89.79;102167.88;5029558;28;20064;-67
2022/12/03 05:28:09;;;;;;;65.40;21.90;;;;;;;1.80;89.69;102168.78;5031828;28;20049;-67
2022/12/03 05:30:34;;;;;;;62.17;21.50;;;;;;;1.83;89.81;102170.69;5037226;28;20034;-67
2022/12/03 05:33:00;;;;;;;67.15;21.63;;;;;;;1.85;89.53;102170.03;5037843;28;20044;-67
2022/12/03 05:35:26;;;;;;;66.13;22.25;;;;;;;1.86;89.22;102171.81;5035705;28;20286;-67
2022/12/03 05:37:51;;;;;;;67.88;22.05;;;;;;;1.86;89.22;102163.22;5034556;28;20165;-63
2022/12/03 05:40:17;;;;;;;66.53;21.83;;;;;;;1.87;90.04;102162.47;5023350;28;20045;-63
2022/12/03 05:42:55;;;;;;;70.13;22.65;;;;;;;1.87;89.47;102154.75;5024685;28;20128;-63
2022/12/03 05:45:47;;;;;;;64.15;21.85;;;;;;;1.91;89.64;102151.63;5033715;28;20041;-63
2022/12/03 05:48:14;;;;;;;61.50;21.10;;;;;;;1.86;89.64;102150.38;5030117;28;20100;-63
2022/12/03 05:50:43;;;;;;;63.42;22.08;;;;;;;1.84;89.90;102149.34;5032388;28;20017;-63
2022/12/03 05:53:08;;;;;;;74.47;22.25;;;;;;;1.84;89.71;102150.25;5034189;28;20088;-63
2022/12/03 05:55:34;;;;;;;70.97;23.63;;;;;;;1.84;89.49;102151.91;5030502;28;20034;-63
2022/12/03 05:57:59;;;;;;;71.45;23.63;;;;;;;1.80;89.45;102153.34;5025242;28;20026;-63
2022/12/03 06:00:30;;;;;;;71.45;21.80;;;;;;;1.78;90.02;102154.00;5031764;28;20025;-63
2022/12/03 06:02:56;;;;;;;67.47;21.63;;;;;;;1.76;90.12;102148.75;5032171;28;20056;-63
2022/12/03 06:05:22;;;;;;;66.22;21.90;;;;;;;1.77;90.52;102155.69;5035905;28;20075;-63
2022/12/03 06:07:49;;;;;;;74.13;22.27;;;;;;;1.77;89.56;102150.53;5034268;28;20157;-67
2022/12/03 06:10:17;;;;;;;65.40;21.70;;;;;;;1.72;89.77;102155.31;5020094;28;20052;-67
2022/12/03 06:12:43;;;;;;;68.88;22.35;;;;;;;1.74;90.75;102156.31;5033289;28;20290;-67
2022/12/03 06:15:10;;;;;;;67.28;22.65;;;;;;;1.74;90.47;102145.16;5041442;28;20022;-67
2022/12/03 06:17:35;;;;;;;68.72;22.42;;;;;;;1.74;90.21;102147.72;5033137;28;20049;-67
2022/12/03 06:20:01;;;;;;;68.38;24.95;;;;;;;1.74;89.54;102140.91;5035018;28;20303;-67
2022/12/03 06:22:26;;;;;;;76.25;23.20;;;;;;;1.73;90.23;102145.94;5031631;28;20128;-67
2022/12/03 06:24:52;;;;;;;60.72;20.88;;;;;;;1.72;90.26;102136.41;5034030;28;20235;-67
2022/12/03 06:27:17;;;;;;;66.10;21.20;;;;;;;1.72;90.67;102147.59;5037873;28;20033;-67
2022/12/03 06:29:43;;;;;;;70.38;22.95;;;;;;;1.72;90.62;102146.69;5033923;28;20025;-67
2022/12/03 06:32:08;;;;;;;62.83;21.73;;;;;;;1.72;90.30;102151.81;5036272;28;20056;-67
2022/12/03 06:34:34;;;;;;;68.88;22.30;;;;;;;1.70;90.52;102153.38;5029211;28;20327;-67
2022/12/03 06:36:59;;;;;;;64.00;21.52;;;;;;;1.69;89.95;102146.44;5027087;28;20046;-67
2022/12/03 06:39:24;;;;;;;67.35;21.42;;;;;;;1.70;90.69;102149.13;5035786;28;20040;-67
2022/12/03 06:41:50;;;;;;;66.40;22.88;;;;;;;1.73;90.75;102146.81;5029614;28;20030;-67
2022/12/03 06:44:15;;;;;;;60.53;21.92;;;;;;;1.75;90.24;102146.94;5025086;28;20068;-67
2022/12/03 06:46:41;;;;;;;71.82;22.60;;;;;;;1.75;90.33;102144.34;5031784;28;20285;-67
2022/12/03 06:49:08;;;;;;;66.72;21.05;;;;;;;1.76;90.15;102142.72;5033911;28;20345;-67
2022/12/03 06:51:34;;;;;;;62.60;21.45;;;;;;;1.76;90.77;102143.59;5030826;28;20069;-67
2022/12/03 06:53:59;;;;;;;62.58;21.35;;;;;;;1.77;89.98;102142.84;5038504;28;20022;-67
2022/12/03 06:56:39;;;;;;;67.68;21.38;;;;;;;1.77;90.47;102140.25;5013150;28;20272;-67
2022/12/03 06:59:05;;;;;;;63.13;20.88;;;;;;;1.79;90.76;102142.94;5036655;28;20048;-67
2022/12/03 07:01:30;;;;;;;70.78;21.20;;;;;;;1.77;90.51;102140.25;5040045;28;20052;-67
2022/12/03 07:03:55;;;;;;;62.97;20.67;;;;;;;1.76;89.97;102133.31;5024207;28;20025;-67
2022/12/03 07:06:21;;;;;;;65.85;20.85;;;;;;;1.78;90.06;102136.00;5024130;28;20033;-63
2022/12/03 07:08:46;;;;;;;64.07;21.17;;;;;;;1.79;90.30;102140.38;5024404;28;20275;-63
2022/12/03 07:11:29;;;;;;;64.05;20.38;;;;;;;1.78;89.77;102136.91;5023756;28;20078;-63
2022/12/03 07:13:56;;;;;;;61.22;20.67;;;;;;;1.78;90.64;102139.47;5005835;28;20052;-63
2022/12/03 07:16:22;;;;;;;63.60;21.20;;;;;;;1.78;90.12;102141.16;5024642;28;20026;-63
2022/12/03 07:18:47;;;;;;;69.63;21.95;;;;;;;1.77;89.76;102142.84;5022952;28;20034;-63
2022/12/03 07:21:13;;;;;;;63.78;20.55;;;;;;;1.79;90.51;102143.84;5023431;28;20061;-63
2022/12/03 07:23:38;;;;;;;59.78;20.25;;;;;;;1.79;90.05;102142.94;5033704;28;20030;-63
2022/12/03 07:26:03;;;;;;;65.43;21.08;;;;;;;1.81;90.03;102136.25;5037304;28;20022;-63
2022/12/03 07:28:29;;;;;;;61.67;19.85;;;;;;;1.82;89.66;102141.50;5028163;28;20076;-63
2022/12/03 07:30:54;;;;;;;65.68;19.98;;;;;;;1.81;89.45;102142.31;5036446;28;20015;-63
2022/12/03 07:33:19;;;;;;;64.70;20.85;;;;;;;1.80;89.88;102144.75;5032427;28;20290;-63
2022/12/03 07:35:45;;;;;;;61.90;21.38;;;;;;;1.78;89.34;102148.84;5031725;28;20036;-63
2022/12/03 07:38:10;;;;;;;63.65;19.15;;;;;;;1.77;89.81;102139.34;5029073;28;20088;-67
2022/12/03 07:40:35;;;;;;;59.92;20.70;;;;;;;1.77;89.38;102140.25;5035156;28;20450;-67
2022/12/03 07:43:00;;;;;;;56.72;19.95;;;;;;;1.74;89.99;102140.91;5034656;28;20096;-67
2022/12/03 07:45:26;;;;;;;66.07;21.30;;;;;;;1.74;89.92;102137.44;5037156;28;20078;-67
2022/12/03 07:47:51;;;;;;;58.88;20.48;;;;;;;1.73;89.54;102141.66;5034590;28;20075;-67
2022/12/03 07:50:16;;;;;;;59.60;18.92;;;;;;;1.71;90.29;102139.78;5029986;28;20033;-67
2022/12/03 07:52:42;;;;;;;61.83;21.42;;;;;;;1.74;90.25;102147.72;5028930;28;20041;-67
2022/12/03 07:55:09;;;;;;;66.65;21.27;;;;;;;1.72;89.90;102147.59;5036878;28;20026;-67
2022/12/03 07:57:34;;;;;;;62.72;22.67;;;;;;;1.73;89.62;102148.50;5027994;28;20284;-67
2022/12/03 08:00:00;;;;;;;58.25;20.38;;;;;;;1.75;89.26;102146.94;5027461;28;20304;-67
2022/12/03 08:02:25;;;;;;;62.22;21.00;;;;;;;1.73;89.66;102146.81;5029940;28;20046;-67
2022/12/03 08:04:50;;;;;;;59.50;19.25;;;;;;;1.75;89.68;102146.94;5035486;28;20042;-67
2022/12/03 08:07:15;;;;;;;56.08;19.20;;;;;;;1.72;89.26;102150.19;5032196;28;20048;-63
2022/12/03 08:09:41;;;;;;;58.85;18.63;;;;;;;1.71;89.14;102145.81;5014306;28;20045;-63
2022/12/03 08:12:15;;;;;;;59.38;17.55;;;;;;;1.67;88.76;102154.03;5038193;28;20052;-63
2022/12/03 08:14:41;;;;;;;63.42;18.20;;;;;;;1.67;88.89;102158.28;5035047;28;20204;-63
2022/12/03 08:17:13;;;;;;;56.80;18.48;;;;;;;1.67;88.87;102156.59;5029523;28;20075;-63
2022/12/03 08:19:44;;;;;;;50.25;17.77;;;;;;;1.69;88.75;102156.72;5033598;28;20041;-62
2022/12/03 08:22:14;;;;;;;55.33;18.25;;;;;;;1.68;88.76;102149.78;5032033;28;20033;-63
2022/12/03 08:24:39;;;;;;;52.00;17.60;;;;;;;1.67;89.07;102151.47;5030105;28;20133;-63
2022/12/03 08:27:16;;;;;;;54.78;18.30;;;;;;;1.68;88.62;102154.91;5035371;28;20188;-62
2022/12/03 08:29:41;;;;;;;64.78;19.30;;;;;;;1.67;89.10;102159.16;5041382;28;20025;-63
2022/12/03 08:32:09;;;;;;;60.30;18.17;;;;;;;1.68;89.33;102154.91;5024059;28;20029;-62
2022/12/03 08:34:39;;;;;;;58.03;18.45;;;;;;;1.67;89.39;102158.28;5030131;28;20045;-63
2022/12/03 08:37:13;;;;;;;55.90;17.88;;;;;;;1.67;90.04;102155.72;5035783;28;20032;-67
2022/12/03 08:39:44;;;;;;;64.10;20.60;;;;;;;1.70;89.64;102151.72;5034718;28;20053;-68
2022/12/03 08:42:43;;;;;;;59.10;19.10;;;;;;;1.75;89.63;102154.63;5035622;28;20056;-69
2022/12/03 08:45:38;;;;;;;69.47;19.33;;;;;;;1.80;89.72;102157.59;5027983;28;20166;-67
2022/12/03 08:48:28;;;;;;;57.60;19.00;;;;;;;1.81;89.76;102150.00;5030713;28;20034;-67
2022/12/03 08:50:56;;;;;;;60.65;19.42;;;;;;;1.82;89.34;102149.22;5023022;28;20209;-67
2022/12/03 08:53:29;;;;;;;60.75;19.48;;;;;;;1.83;89.83;102145.00;5025326;28;20056;-67
2022/12/03 08:56:17;;;;;;;65.32;20.05;;;;;;;1.83;89.55;102153.59;5031092;28;20026;-67
2022/12/03 08:58:45;;;;;;;57.78;18.52;;;;;;;1.82;89.44;102145.75;5025279;28;20042;-67
2022/12/03 09:01:10;;;;;;;55.25;19.83;;;;;;;1.82;89.38;102149.22;5035978;28;20931;-67
2022/12/03 09:03:37;;;;;;;60.10;19.48;;;;;;;1.81;90.05;102151.66;5041596;28;20106;-67
2022/12/03 09:06:03;;;;;;;57.63;19.88;;;;;;;1.80;88.89;102144.75;5043702;28;20161;-67
2022/12/03 09:08:28;;;;;;;61.33;20.00;;;;;;;1.77;89.38;102150.53;5035513;28;20295;-67
2022/12/03 09:10:53;;;;;;;56.38;19.13;;;;;;;1.79;89.40;102148.09;5024748;28;20026;-67
2022/12/03 09:13:19;;;;;;;54.08;18.67;;;;;;;1.78;89.16;102154.00;5029518;28;20237;-67
2022/12/03 09:15:44;;;;;;;61.72;18.42;;;;;;;1.79;89.75;102148.97;5025182;28;20955;-67
2022/12/03 09:18:09;;;;;;;60.13;19.83;;;;;;;1.80;89.07;102155.91;5024096;28;20030;-67
2022/12/03 09:20:34;;;;;;;64.40;19.00;;;;;;;1.78;88.14;102157.44;5026945;28;20219;-67
2022/12/03 09:23:00;;;;;;;53.25;18.23;;;;;;;1.73;89.15;102145.94;5034207;28;20088;-67
2022/12/03 09:25:25;;;;;;;57.72;18.77;;;;;;;1.70;88.48;102150.81;5025543;28;20030;-68
2022/12/03 09:27:50;;;;;;;54.97;17.35;;;;;;;1.69;88.52;102149.91;5027099;28;20942;-67
2022/12/03 09:30:16;;;;;;;58.92;17.65;;;;;;;1.67;88.02;102150.59;5029831;28;20025;-67
2022/12/03 09:32:41;;;;;;;61.88;18.27;;;;;;;1.67;87.79;102153.16;5025241;28;20331;-67
2022/12/03 09:35:07;;;;;;;59.72;19.80;;;;;;;1.66;88.35;102153.91;5023142;28;20249;-67
2022/12/03 09:37:33;;;;;;;60.33;18.40;;;;;;;1.66;87.67;102146.22;5024386;28;20028;-67
2022/12/03 09:39:58;;;;;;;65.90;19.27;;;;;;;1.64;86.91;102150.34;5029052;28;20067;-67
2022/12/03 09:42:24;;;;;;;61.47;19.98;;;;;;;1.61;88.26;102148.41;5021899;28;20045;-67
2022/12/03 09:44:49;;;;;;;63.35;19.15;;;;;;;1.61;88.10;102148.41;5023115;28;20109;-67
2022/12/03 09:47:15;;;;;;;64.65;19.77;;;;;;;1.60;88.30;102140.59;5022619;28;20112;-67
2022/12/03 09:49:41;;;;;;;59.50;19.42;;;;;;;1.59;87.63;102149.94;5020171;28;20568;-67
2022/12/03 09:52:06;;;;;;;60.03;19.05;;;;;;;1.55;88.51;102142.75;5034300;28;20046;-67
2022/12/03 09:54:33;;;;;;;63.85;19.52;;;;;;;1.55;88.53;102135.97;5026841;28;20037;-67
2022/12/03 09:57:01;;;;;;;66.50;19.80;;;;;;;1.54;88.20;102135.84;5020401;28;20022;-67
2022/12/03 09:59:30;;;;;;;65.57;20.67;;;;;;;1.53;88.74;102128.91;5025838;28;20042;-67
2022/12/03 10:01:56;;;;;;;61.75;19.48;;;;;;;1.53;87.58;102128.91;5017636;28;20037;-67
2022/12/03 10:04:23;;;;;;;63.15;18.50;;;;;;;1.51;88.29;102126.22;5020347;28;20114;-67
2022/12/03 10:06:49;;;;;;;63.45;19.52;;;;;;;1.53;88.40;102129.78;5027381;28;20354;-63
2022/12/03 10:09:22;;;;;;;54.15;18.40;;;;;;;1.56;89.25;102131.72;5024763;28;20111;-63
2022/12/03 10:11:48;;;;;;;53.55;17.45;;;;;;;1.59;88.98;102120.78;5030465;28;20552;-62
2022/12/03 10:14:16;;;;;;;55.47;17.67;;;;;;;1.60;87.71;102114.91;5024535;28;20030;-63
2022/12/03 10:16:42;;;;;;;54.22;16.73;;;;;;;1.62;88.82;102123.59;5025209;28;20352;-63
2022/12/03 10:19:26;;;;;;;51.63;16.83;;;;;;;1.61;88.14;102121.81;5024948;28;20099;-63
2022/12/03 10:21:51;;;;;;;53.20;16.65;;;;;;;1.58;85.92;102119.00;5028639;28;20018;-63
2022/12/03 10:24:18;;;;;;;48.17;16.50;;;;;;;1.55;87.33;102112.84;5027445;28;20022;-62
2022/12/03 10:26:45;;;;;;;56.17;16.85;;;;;;;1.53;85.90;102109.25;5023606;28;20048;-63
2022/12/03 10:29:20;;;;;;;50.35;16.38;;;;;;;1.50;87.43;102108.09;5026307;28;20134;-63
2022/12/03 10:31:54;;;;;;;50.58;16.13;;;;;;;1.47;87.05;102100.16;5008210;28;20125;-63
2022/12/03 10:34:25;;;;;;;64.85;25.98;;;;;;;1.44;86.32;102098.22;5031436;28;20030;-63
2022/12/03 10:37:13;;;;;;;50.58;15.93;;;;;;;1.43;87.64;102099.00;5022729;28;20041;-62
2022/12/03 10:39:56;;;;;;;51.25;15.82;;;;;;;1.44;88.00;102093.09;5029831;28;20021;-63
2022/12/03 10:42:23;;;;;;;47.35;16.27;;;;;;;1.46;87.67;102090.66;5026240;28;20042;-62
2022/12/03 10:44:52;;;;;;;46.75;14.75;;;;;;;1.46;87.25;102085.50;5029562;28;20299;-62
2022/12/03 10:47:19;;;;;;;55.30;15.52;;;;;;;1.47;87.74;102089.88;5036227;28;20036;-63
2022/12/03 10:50:02;;;;;;;47.35;16.48;;;;;;;1.47;87.20;102082.19;5028234;28;20264;-62
2022/12/03 10:52:27;;;;;;;49.95;14.57;;;;;;;1.46;85.38;102076.13;5034305;28;20088;-63
2022/12/03 10:54:52;;;;;;;45.53;14.27;;;;;;;1.44;86.63;102072.56;5033078;28;20292;-63
2022/12/03 10:57:18;;;;;;;45.33;15.30;;;;;;;1.46;85.81;102071.00;5032875;28;20172;-63
2022/12/03 10:59:43;;;;;;;43.25;14.82;;;;;;;1.48;85.93;102064.31;5030274;28;20299;-63
2022/12/03 11:02:20;;;;;;;42.35;15.13;;;;;;;1.50;85.94;102060.19;5029266;28;20041;-62
2022/12/03 11:04:46;;;;;;;45.17;13.80;;;;;;;1.54;85.96;102058.78;5027112;28;20039;-63
2022/12/03 11:07:17;;;;;;;35.78;14.00;;;;;;;1.56;86.04;102062.34;5029783;28;20179;-62
2022/12/03 11:09:51;;;;;;;44.47;14.38;;;;;;;1.56;84.95;102055.56;5029541;28;20088;-63
2022/12/03 11:12:20;;;;;;;41.05;15.05;;;;;;;1.59;85.62;102062.59;5031359;28;20168;-63
2022/12/03 11:14:52;;;;;;;44.22;13.73;;;;;;;1.62;85.48;102056.81;5034144;28;20021;-63
2022/12/03 11:17:23;;;;;;;42.25;14.55;;;;;;;1.61;84.16;102049.88;5030577;28;20037;-63
2022/12/03 11:19:50;;;;;;;46.10;14.95;;;;;;;1.58;84.66;102044.50;5028402;28;20030;-63
2022/12/03 11:22:24;;;;;;;43.95;15.65;;;;;;;1.59;85.44;102051.44;5041783;28;20022;-63
2022/12/03 11:25:24;;;;;;;48.38;16.58;;;;;;;1.59;85.53;102051.44;5038834;28;20025;-63
2022/12/03 11:28:09;;;;;;;43.40;14.63;;;;;;;1.59;86.01;102044.63;5028684;28;20041;-62
2022/12/03 11:30:52;;;;;;;43.75;15.05;;;;;;;1.62;84.93;102041.41;5028504;28;20041;-62
2022/12/03 11:33:26;;;;;;;41.65;15.93;;;;;;;1.63;85.29;102033.81;5032011;28;20072;-62
2022/12/03 11:36:06;;;;;;;41.42;15.73;;;;;;;1.62;83.81;102028.56;5031567;28;20040;-62